createdAt,value
2022-11-03T00:00:00.387Z,11.09
2022-11-03T00:10:01.998Z,10.95
2022-11-03T00:20:03.864Z,10.89
2022-11-03T00:30:07.013Z,10.74
2022-11-03T00:40:11.198Z,10.65
2022-11-03T00:50:12.752Z,10.43
2022-11-03T01:00:15.898Z,10.05
2022-11-03T01:10:22.902Z,9.84
2022-11-03T01:20:25.552Z,9.62
2022-11-03T01:30:27.176Z,9.37
2022-11-03T01:40:30.908Z,9.34
2022-11-03T01:50:32.689Z,9.47
2022-11-03T02:11:43.810Z,9.38
2022-11-03T02:21:55.636Z,9.21
2022-11-03T02:32:08.276Z,8.96
2022-11-03T02:42:12.747Z,8.61
2022-11-03T02:52:36.014Z,8.70
2022-11-03T03:02:53.140Z,8.42
2022-11-03T03:12:58.877Z,8.02
2022-11-03T03:23:19.225Z,7.52
2022-11-03T03:43:31.560Z,7.02
2022-11-03T03:53:33.218Z,7.02
2022-11-03T04:03:34.928Z,7.05
2022-11-03T04:13:56.264Z,6.83
2022-11-03T04:24:00.314Z,6.78
2022-11-03T04:34:10.367Z,6.56
2022-11-03T04:44:16.818Z,6.64
2022-11-03T04:54:23.609Z,6.45
2022-11-03T05:04:25.439Z,6.36
2022-11-03T05:14:37.719Z,6.43
2022-11-03T05:24:39.415Z,6.44
2022-11-03T05:34:43.228Z,6.50
2022-11-03T05:44:45.708Z,6.70
2022-11-03T05:54:47.671Z,6.73
2022-11-03T06:04:54.560Z,6.88
2022-11-03T06:14:56.596Z,7.05
2022-11-03T06:25:12.097Z,7.28
2022-11-03T06:35:14.960Z,7.60
2022-11-03T06:45:24.919Z,7.94
2022-11-03T06:55:31.232Z,8.34
2022-11-03T07:05:33.415Z,8.89
2022-11-03T07:15:40.240Z,9.80
2022-11-03T07:25:41.959Z,10.13
2022-11-03T07:36:13.859Z,10.59
2022-11-03T07:46:17.725Z,10.80
2022-11-03T07:56:21.063Z,10.87
2022-11-03T08:06:23.865Z,11.14
2022-11-03T08:16:25.915Z,11.32
2022-11-03T08:26:27.850Z,11.27
2022-11-03T08:36:30.580Z,11.57
2022-11-03T08:46:33.364Z,11.61
2022-11-03T08:56:35.047Z,11.75
2022-11-03T09:06:37.769Z,11.54
2022-11-03T09:16:40.941Z,11.76
2022-11-03T09:26:42.777Z,11.83
2022-11-03T09:36:48.077Z,11.68
2022-11-03T09:46:58.411Z,11.63
2022-11-03T09:57:12.140Z,11.62
2022-11-03T10:07:14.254Z,11.54
2022-11-03T10:17:21.848Z,11.46
2022-11-03T10:27:25.586Z,11.45
2022-11-03T10:37:28.660Z,11.42
2022-11-03T10:47:36.345Z,11.67
2022-11-03T10:57:38.664Z,11.51
2022-11-03T11:07:43.714Z,11.41
2022-11-03T11:17:46.837Z,11.44
2022-11-03T11:27:58.733Z,11.68
2022-11-03T11:38:37.921Z,11.75
2022-11-03T11:48:40.172Z,11.87
2022-11-03T11:58:48.881Z,12.00
2022-11-03T12:08:51.474Z,12.18
2022-11-03T12:18:54.270Z,12.13
2022-11-03T12:28:57.344Z,12.00
2022-11-03T12:38:59.402Z,11.87
2022-11-03T12:49:05.149Z,11.69
2022-11-03T12:59:13.101Z,11.59
2022-11-03T13:09:14.892Z,11.48
2022-11-03T13:19:18.543Z,11.32
2022-11-03T13:29:23.288Z,11.23
2022-11-03T13:39:24.948Z,11.11
2022-11-03T13:59:49.839Z,10.80
2022-11-03T14:09:54.345Z,10.84
2022-11-03T14:20:03.688Z,10.95
2022-11-03T14:30:06.777Z,11.01
2022-11-03T14:40:30.231Z,10.83
2022-11-03T14:50:32.778Z,10.64
2022-11-03T15:00:35.418Z,10.35
2022-11-03T15:10:39.523Z,9.58
2022-11-03T15:20:42.705Z,9.31
2022-11-03T15:30:50.637Z,9.21
2022-11-03T15:40:53.786Z,9.03
2022-11-03T15:50:55.486Z,8.59
2022-11-03T16:00:57.545Z,8.63
2022-11-03T16:10:59.560Z,8.65
2022-11-03T16:21:11.483Z,8.59
2022-11-03T16:31:14.076Z,8.74
2022-11-03T16:41:16.875Z,8.95
2022-11-03T16:51:20.731Z,9.03
2022-11-03T17:01:23.171Z,9.18
2022-11-03T17:11:36.339Z,9.41
2022-11-03T17:21:40.815Z,9.39
2022-11-03T17:31:49.446Z,9.64
2022-11-03T17:41:51.322Z,9.74
2022-11-03T17:51:54.001Z,9.71
2022-11-03T18:02:00.159Z,9.68
2022-11-03T18:12:20.471Z,9.81
2022-11-03T18:22:22.943Z,9.77
2022-11-03T18:32:24.842Z,9.92
2022-11-03T18:42:26.753Z,9.86
2022-11-03T18:52:29.079Z,9.94
2022-11-03T19:02:34.440Z,9.98
2022-11-03T19:12:39.142Z,10.05
2022-11-03T19:22:47.509Z,10.01
2022-11-03T19:32:53.416Z,10.08
2022-11-03T19:42:59.699Z,10.13
2022-11-03T19:53:03.458Z,10.20
2022-11-03T20:03:05.557Z,10.31
2022-11-03T20:13:12.844Z,10.20
2022-11-03T20:23:25.350Z,10.20
2022-11-03T20:33:30.680Z,10.17
2022-11-03T20:43:42.852Z,10.22
2022-11-03T20:53:48.061Z,10.18
2022-11-03T21:03:59.185Z,10.18
2022-11-03T21:14:08.737Z,10.19
2022-11-03T21:24:12.187Z,10.23
2022-11-03T21:34:15.152Z,10.21
2022-11-03T21:44:17.971Z,10.09
2022-11-03T21:54:19.850Z,10.10
2022-11-03T22:04:23.131Z,10.23
2022-11-03T22:14:50.511Z,10.09
2022-11-03T22:25:10.951Z,10.02
2022-11-03T22:35:30.869Z,10.03
2022-11-03T22:45:51.307Z,9.92
2022-11-03T22:55:53.413Z,9.75
2022-11-03T23:05:59.790Z,9.70
2022-11-03T23:16:10.242Z,9.67
2022-11-03T23:26:14.985Z,9.78
2022-11-03T23:36:17.794Z,9.64
2022-11-03T23:46:50.168Z,9.62
2022-11-03T23:57:11.545Z,9.55
